Time,TemperatureF,DewpointF,PressureIn,WindDirection,WindDirectionDegrees,WindSpeedMPH,WindSpeedGustMPH,Humidity,HourlyPrecipIn,Conditions,Clouds,dailyrainin,SoftwareType,DateUTC
2013-03-18 00:02:00,33.0,31.0,-100.00,West,277,16.0,21.0,90,-99.99,,,-99.99,,2013-03-18 07:02:00,
2013-03-18 00:22:00,33.0,31.0,-100.00,West,279,15.0,19.0,90,-99.99,,,-99.99,,2013-03-18 07:22:00,
2013-03-18 00:32:00,33.0,31.0,-100.00,West,275,16.0,23.0,89,-99.99,,,-99.99,,2013-03-18 07:32:00,
2013-03-18 00:42:00,33.0,30.0,-100.00,West,276,19.0,25.0,89,-99.99,,,-99.99,,2013-03-18 07:42:00,
2013-03-18 00:52:00,33.0,30.0,-100.00,West,278,17.0,23.0,89,-99.99,,,-99.99,,2013-03-18 07:52:00,
2013-03-18 01:02:00,33.0,31.0,-100.00,West,281,15.0,19.0,91,-99.99,,,-99.99,,2013-03-18 08:02:00,
2013-03-18 01:12:00,33.0,31.0,-100.00,West,279,17.0,24.0,92,-99.99,,,-99.99,,2013-03-18 08:12:00,
2013-03-18 01:22:00,33.0,31.0,-100.00,WNW,289,15.0,18.0,92,-99.99,,,-99.99,,2013-03-18 08:22:00,
2013-03-18 01:32:00,33.0,31.0,-100.00,WNW,289,15.0,18.0,92,-99.99,,,-99.99,,2013-03-18 08:32:00,
2013-03-18 01:43:00,33.0,31.0,-100.00,WNW,287,15.0,18.0,93,-99.99,,,-99.99,,2013-03-18 08:43:00,
2013-03-18 01:52:00,33.0,31.0,-100.00,WNW,292,16.0,22.0,94,-99.99,,,-99.99,,2013-03-18 08:52:00,
2013-03-18 02:02:00,32.0,31.0,-100.00,WNW,294,16.0,22.0,94,-99.99,,,-99.99,,2013-03-18 09:02:00,
2013-03-18 02:12:00,33.0,31.0,-100.00,WNW,293,14.0,18.0,94,-99.99,,,-99.99,,2013-03-18 09:12:00,
2013-03-18 02:22:00,33.0,31.0,-100.00,WNW,293,15.0,19.0,94,-99.99,,,-99.99,,2013-03-18 09:22:00,
2013-03-18 02:33:00,33.0,31.0,-100.00,WNW,283,16.0,19.0,91,-99.99,,,-99.99,,2013-03-18 09:33:00,
2013-03-18 02:42:00,33.0,31.0,-100.00,WNW,286,17.0,22.0,89,-99.99,,,-99.99,,2013-03-18 09:42:00,
2013-03-18 02:53:00,33.0,30.0,-100.00,WNW,288,16.0,20.0,89,-99.99,,,-99.99,,2013-03-18 09:53:00,
2013-03-18 03:03:00,34.0,30.0,-100.00,West,281,14.0,20.0,88,-99.99,,,-99.99,,2013-03-18 10:03:00,
2013-03-18 03:12:00,33.0,30.0,-100.00,West,277,13.0,16.0,88,-99.99,,,-99.99,,2013-03-18 10:12:00,
2013-03-18 03:23:00,33.0,30.0,-100.00,West,279,13.0,15.0,89,-99.99,,,-99.99,,2013-03-18 10:23:00,
2013-03-18 03:33:00,33.0,30.0,-100.00,West,270,11.0,16.0,90,-99.99,,,-99.99,,2013-03-18 10:33:00,
2013-03-18 03:42:00,33.0,30.0,-100.00,West,273,13.0,18.0,90,-99.99,,,-99.99,,2013-03-18 10:42:00,
2013-03-18 03:52:00,33.0,30.0,-100.00,WNW,282,14.0,19.0,90,-99.99,,,-99.99,,2013-03-18 10:52:00,
2013-03-18 04:03:00,33.0,30.0,-100.00,WNW,284,15.0,19.0,89,-99.99,,,-99.99,,2013-03-18 11:03:00,
2013-03-18 04:12:00,33.0,30.0,-100.00,West,277,14.0,18.0,89,-99.99,,,-99.99,,2013-03-18 11:12:00,
2013-03-18 04:22:00,33.0,30.0,-100.00,WNW,282,15.0,19.0,89,-99.99,,,-99.99,,2013-03-18 11:22:00,
2013-03-18 04:32:00,33.0,30.0,-100.00,WNW,282,15.0,19.0,89,-99.99,,,-99.99,,2013-03-18 11:32:00,
2013-03-18 04:42:00,33.0,30.0,-100.00,West,269,12.0,17.0,87,-99.99,,,-99.99,,2013-03-18 11:42:00,
2013-03-18 04:52:00,33.0,30.0,-100.00,WNW,287,12.0,20.0,87,-99.99,,,-99.99,,2013-03-18 11:52:00,
2013-03-18 05:02:00,33.0,30.0,-100.00,WNW,287,12.0,20.0,87,-99.99,,,-99.99,,2013-03-18 12:02:00,
2013-03-18 05:12:00,33.0,30.0,-100.00,WNW,284,15.0,18.0,87,-99.99,,,-99.99,,2013-03-18 12:12:00,
2013-03-18 05:22:00,33.0,30.0,-100.00,WNW,284,15.0,18.0,87,-99.99,,,-99.99,,2013-03-18 12:22:00,
2013-03-18 05:32:00,34.0,30.0,-100.00,West,280,17.0,23.0,86,-99.99,,,-99.99,,2013-03-18 12:32:00,
2013-03-18 05:42:00,34.0,30.0,-100.00,West,280,16.0,21.0,86,-99.99,,,-99.99,,2013-03-18 12:42:00,
2013-03-18 05:52:00,34.0,30.0,-100.00,West,278,19.0,25.0,86,-99.99,,,-99.99,,2013-03-18 12:52:00,
2013-03-18 06:02:00,34.0,30.0,-100.00,WNW,282,17.0,20.0,86,-99.99,,,-99.99,,2013-03-18 13:02:00,
2013-03-18 06:12:00,34.0,30.0,-100.00,West,276,15.0,18.0,87,-99.99,,,-99.99,,2013-03-18 13:12:00,
2013-03-18 06:22:00,34.0,30.0,-100.00,West,274,16.0,20.0,88,-99.99,,,-99.99,,2013-03-18 13:22:00,
2013-03-18 06:32:00,34.0,31.0,-100.00,West,279,16.0,19.0,89,-99.99,,,-99.99,,2013-03-18 13:32:00,
2013-03-18 06:42:00,33.0,31.0,-100.00,WNW,283,12.0,16.0,91,-99.99,,,-99.99,,2013-03-18 13:42:00,
2013-03-18 06:52:00,33.0,31.0,-100.00,West,278,11.0,15.0,91,-99.99,,,-99.99,,2013-03-18 13:52:00,
2013-03-18 07:02:00,33.0,31.0,-100.00,West,271,11.0,15.0,91,-99.99,,,-99.99,,2013-03-18 14:02:00,
2013-03-18 07:12:00,33.0,31.0,-100.00,West,271,12.0,16.0,92,-99.99,,,-99.99,,2013-03-18 14:12:00,
2013-03-18 07:22:00,33.0,31.0,-100.00,West,273,13.0,17.0,93,-99.99,,,-99.99,,2013-03-18 14:22:00,
2013-03-18 07:32:00,33.0,31.0,-100.00,West,275,12.0,18.0,93,-99.99,,,-99.99,,2013-03-18 14:32:00,
2013-03-18 07:42:00,33.0,31.0,-100.00,West,261,9.0,12.0,93,-99.99,,,-99.99,,2013-03-18 14:42:00,
2013-03-18 07:52:00,33.0,31.0,-100.00,West,263,8.0,12.0,93,-99.99,,,-99.99,,2013-03-18 14:52:00,
2013-03-18 08:02:00,33.0,31.0,-100.00,West,267,10.0,13.0,91,-99.99,,,-99.99,,2013-03-18 15:02:00,
2013-03-18 08:12:00,33.0,31.0,-100.00,West,263,7.0,10.0,91,-99.99,,,-99.99,,2013-03-18 15:12:00,
2013-03-18 08:22:00,33.0,31.0,-100.00,WSW,257,7.0,11.0,89,-99.99,,,-99.99,,2013-03-18 15:22:00,
2013-03-18 08:33:00,34.0,31.0,-100.00,West,261,6.0,9.0,88,-99.99,,,-99.99,,2013-03-18 15:33:00,
2013-03-18 08:42:00,34.0,31.0,-100.00,WSW,256,7.0,11.0,87,-99.99,,,-99.99,,2013-03-18 15:42:00,
2013-03-18 08:52:00,34.0,31.0,-100.00,West,262,10.0,15.0,86,-99.99,,,-99.99,,2013-03-18 15:52:00,
2013-03-18 09:02:00,34.0,31.0,-100.00,West,267,10.0,15.0,86,-99.99,,,-99.99,,2013-03-18 16:02:00,
2013-03-18 09:12:00,35.0,31.0,-100.00,West,269,12.0,15.0,85,-99.99,,,-99.99,,2013-03-18 16:12:00,
2013-03-18 09:22:00,35.0,30.0,-100.00,West,272,13.0,16.0,83,-99.99,,,-99.99,,2013-03-18 16:22:00,
2013-03-18 09:32:00,35.0,31.0,-100.00,West,272,12.0,16.0,83,-99.99,,,-99.99,,2013-03-18 16:32:00,
2013-03-18 09:42:00,36.0,32.0,-100.00,West,277,12.0,16.0,83,-99.99,,,-99.99,,2013-03-18 16:42:00,
2013-03-18 09:52:00,37.0,31.0,-100.00,West,261,13.0,18.0,80,-99.99,,,-99.99,,2013-03-18 16:52:00,
2013-03-18 10:02:00,37.0,31.0,-100.00,West,271,14.0,18.0,79,-99.99,,,-99.99,,2013-03-18 17:02:00,
2013-03-18 10:12:00,37.0,31.0,-100.00,West,273,16.0,20.0,76,-99.99,,,-99.99,,2013-03-18 17:12:00,
2013-03-18 10:22:00,38.0,31.0,-100.00,West,278,16.0,21.0,77,-99.99,,,-99.99,,2013-03-18 17:22:00,
2013-03-18 10:32:00,38.0,31.0,-100.00,West,280,18.0,22.0,77,-99.99,,,-99.99,,2013-03-18 17:32:00,
2013-03-18 10:42:00,38.0,32.0,-100.00,West,279,18.0,22.0,78,-99.99,,,-99.99,,2013-03-18 17:42:00,
2013-03-18 10:52:00,38.0,32.0,-100.00,West,277,19.0,25.0,76,-99.99,,,-99.99,,2013-03-18 17:52:00,
2013-03-18 11:02:00,39.0,32.0,-100.00,West,277,21.0,26.0,76,-99.99,,,-99.99,,2013-03-18 18:02:00,
2013-03-18 11:12:00,39.0,32.0,-100.00,West,278,21.0,26.0,74,-99.99,,,-99.99,,2013-03-18 18:12:00,
2013-03-18 11:22:00,39.0,32.0,-100.00,WNW,283,22.0,28.0,73,-99.99,,,-99.99,,2013-03-18 18:22:00,
2013-03-18 11:32:00,40.0,32.0,-100.00,WNW,286,21.0,26.0,73,-99.99,,,-99.99,,2013-03-18 18:32:00,
2013-03-18 11:42:00,40.0,32.0,-100.00,WNW,295,20.0,25.0,75,-99.99,,,-99.99,,2013-03-18 18:42:00,
2013-03-18 11:52:00,40.0,32.0,-100.00,WNW,294,20.0,28.0,73,-99.99,,,-99.99,,2013-03-18 18:52:00,
2013-03-18 12:02:00,40.0,32.0,-100.00,WNW,294,20.0,28.0,73,-99.99,,,-99.99,,2013-03-18 19:02:00,
2013-03-18 12:12:00,40.0,32.0,-100.00,WNW,298,24.0,30.0,73,-99.99,,,-99.99,,2013-03-18 19:12:00,
2013-03-18 12:22:00,40.0,33.0,-100.00,WNW,298,27.0,35.0,76,-99.99,,,-99.99,,2013-03-18 19:22:00,
2013-03-18 12:32:00,41.0,34.0,-100.00,WNW,294,30.0,37.0,76,-99.99,,,-99.99,,2013-03-18 19:32:00,
2013-03-18 12:42:00,41.0,33.0,-100.00,WNW,290,31.0,36.0,74,-99.99,,,-99.99,,2013-03-18 19:42:00,
2013-03-18 12:52:00,41.0,33.0,-100.00,WNW,293,30.0,37.0,71,-99.99,,,-99.99,,2013-03-18 19:52:00,
2013-03-18 13:02:00,42.0,33.0,-100.00,WNW,294,28.0,35.0,69,-99.99,,,-99.99,,2013-03-18 20:02:00,
2013-03-18 13:12:00,42.0,32.0,-100.00,WNW,295,28.0,36.0,69,-99.99,,,-99.99,,2013-03-18 20:12:00,
2013-03-18 13:22:00,42.0,32.0,-100.00,WNW,294,30.0,38.0,68,-99.99,,,-99.99,,2013-03-18 20:22:00,
2013-03-18 13:32:00,42.0,32.0,-100.00,WNW,292,33.0,40.0,67,-99.99,,,-99.99,,2013-03-18 20:32:00,
2013-03-18 13:42:00,43.0,32.0,-100.00,WNW,289,34.0,40.0,67,-99.99,,,-99.99,,2013-03-18 20:42:00,
2013-03-18 13:52:00,43.0,33.0,-100.00,WNW,294,28.0,34.0,67,-99.99,,,-99.99,,2013-03-18 20:52:00,
2013-03-18 14:02:00,43.0,33.0,-100.00,WNW,294,28.0,34.0,67,-99.99,,,-99.99,,2013-03-18 21:02:00,
2013-03-18 14:11:00,43.0,32.0,-100.00,WNW,289,31.0,36.0,64,-99.99,,,-99.99,,2013-03-18 21:11:00,
2013-03-18 14:22:00,43.0,31.0,-100.00,WNW,294,28.0,35.0,63,-99.99,,,-99.99,,2013-03-18 21:22:00,
2013-03-18 14:32:00,43.0,32.0,-100.00,WNW,300,29.0,37.0,63,-99.99,,,-99.99,,2013-03-18 21:32:00,
2013-03-18 14:42:00,44.0,32.0,-100.00,WNW,293,29.0,37.0,62,-99.99,,,-99.99,,2013-03-18 21:42:00,
2013-03-18 14:52:00,43.0,30.0,-100.00,WNW,291,31.0,39.0,59,-99.99,,,-99.99,,2013-03-18 21:52:00,
2013-03-18 15:03:00,43.0,30.0,-100.00,WNW,288,35.0,43.0,60,-99.99,,,-99.99,,2013-03-18 22:03:00,
2013-03-18 15:12:00,44.0,30.0,-100.00,WNW,290,36.0,45.0,59,-99.99,,,-99.99,,2013-03-18 22:12:00,
2013-03-18 15:22:00,44.0,30.0,-100.00,WNW,289,33.0,42.0,59,-99.99,,,-99.99,,2013-03-18 22:22:00,
2013-03-18 15:33:00,44.0,30.0,-100.00,WNW,288,32.0,38.0,57,-99.99,,,-99.99,,2013-03-18 22:33:00,
2013-03-18 15:42:00,44.0,31.0,-100.00,WNW,285,32.0,39.0,58,-99.99,,,-99.99,,2013-03-18 22:42:00,
2013-03-18 15:52:00,44.0,30.0,-100.00,WNW,286,34.0,46.0,56,-99.99,,,-99.99,,2013-03-18 22:52:00,
2013-03-18 16:02:00,44.0,31.0,-100.00,WNW,287,34.0,40.0,58,-99.99,,,-99.99,,2013-03-18 23:02:00,
2013-03-18 16:12:00,44.0,30.0,-100.00,West,277,34.0,47.0,56,-99.99,,,-99.99,,2013-03-18 23:12:00,
2013-03-18 16:22:00,44.0,29.0,-100.00,WNW,284,37.0,47.0,56,-99.99,,,-99.99,,2013-03-18 23:22:00,
2013-03-18 16:32:00,44.0,30.0,-100.00,West,281,37.0,47.0,56,-99.99,,,-99.99,,2013-03-18 23:32:00,
2013-03-18 16:42:00,44.0,30.0,-100.00,WNW,285,33.0,40.0,57,-99.99,,,-99.99,,2013-03-18 23:42:00,
2013-03-18 16:52:00,44.0,30.0,-100.00,WNW,285,35.0,44.0,58,-99.99,,,-99.99,,2013-03-18 23:52:00,
2013-03-18 17:02:00,44.0,30.0,-100.00,WNW,285,35.0,44.0,58,-99.99,,,-99.99,,2013-03-19 00:02:00,
2013-03-18 17:12:00,44.0,30.0,-100.00,WNW,288,31.0,38.0,58,-99.99,,,-99.99,,2013-03-19 00:12:00,
2013-03-18 17:22:00,44.0,31.0,-100.00,WNW,290,30.0,40.0,59,-99.99,,,-99.99,,2013-03-19 00:22:00,
2013-03-18 17:32:00,43.0,30.0,-100.00,WNW,287,25.0,32.0,59,-99.99,,,-99.99,,2013-03-19 00:32:00,
2013-03-18 17:42:00,43.0,30.0,-100.00,WNW,287,25.0,32.0,59,-99.99,,,-99.99,,2013-03-19 00:42:00,
2013-03-18 17:52:00,43.0,31.0,-100.00,WNW,285,28.0,37.0,62,-99.99,,,-99.99,,2013-03-19 00:52:00,
2013-03-18 18:02:00,43.0,31.0,-100.00,WNW,288,30.0,37.0,62,-99.99,,,-99.99,,2013-03-19 01:02:00,
2013-03-18 18:12:00,42.0,30.0,-100.00,WNW,287,32.0,41.0,61,-99.99,,,-99.99,,2013-03-19 01:12:00,
2013-03-18 18:22:00,42.0,31.0,-100.00,WNW,287,33.0,40.0,63,-99.99,,,-99.99,,2013-03-19 01:22:00,
2013-03-18 18:32:00,42.0,30.0,-100.00,West,281,36.0,43.0,62,-99.99,,,-99.99,,2013-03-19 01:32:00,
2013-03-18 18:42:00,41.0,30.0,-100.00,WNW,290,33.0,40.0,63,-99.99,,,-99.99,,2013-03-19 01:42:00,
2013-03-18 18:52:00,41.0,31.0,-100.00,WNW,293,29.0,35.0,65,-99.99,,,-99.99,,2013-03-19 01:52:00,
2013-03-18 19:02:00,41.0,31.0,-100.00,WNW,293,29.0,35.0,65,-99.99,,,-99.99,,2013-03-19 02:02:00,
2013-03-18 19:12:00,41.0,30.0,-100.00,WNW,295,29.0,37.0,65,-99.99,,,-99.99,,2013-03-19 02:12:00,
2013-03-18 19:22:00,40.0,30.0,-100.00,WNW,293,29.0,33.0,66,-99.99,,,-99.99,,2013-03-19 02:22:00,
2013-03-18 19:32:00,40.0,31.0,-100.00,WNW,288,30.0,37.0,70,-99.99,,,-99.99,,2013-03-19 02:32:00,
2013-03-18 19:42:00,40.0,31.0,-100.00,WNW,288,30.0,36.0,69,-99.99,,,-99.99,,2013-03-19 02:42:00,
2013-03-18 19:52:00,40.0,31.0,-100.00,WNW,293,30.0,35.0,70,-99.99,,,-99.99,,2013-03-19 02:52:00,
2013-03-18 20:02:00,40.0,30.0,-100.00,WNW,295,32.0,38.0,68,-99.99,,,-99.99,,2013-03-19 03:02:00,
2013-03-18 20:12:00,39.0,31.0,-100.00,WNW,297,30.0,34.0,70,-99.99,,,-99.99,,2013-03-19 03:12:00,
2013-03-18 20:22:00,39.0,31.0,-100.00,WNW,299,25.0,30.0,73,-99.99,,,-99.99,,2013-03-19 03:22:00,
2013-03-18 20:32:00,39.0,32.0,-100.00,WNW,296,22.0,27.0,75,-99.99,,,-99.99,,2013-03-19 03:32:00,
2013-03-18 20:43:00,39.0,32.0,-100.00,WNW,302,17.0,23.0,76,-99.99,,,-99.99,,2013-03-19 03:43:00,
2013-03-18 20:53:00,38.0,32.0,-100.00,WNW,297,20.0,25.0,77,-99.99,,,-99.99,,2013-03-19 03:53:00,
2013-03-18 21:03:00,39.0,32.0,-100.00,WNW,291,19.0,22.0,77,-99.99,,,-99.99,,2013-03-19 04:03:00,
2013-03-18 21:13:00,38.0,32.0,-100.00,WNW,294,15.0,20.0,77,-99.99,,,-99.99,,2013-03-19 04:13:00,
2013-03-18 21:22:00,38.0,31.0,-100.00,WNW,293,18.0,20.0,77,-99.99,,,-99.99,,2013-03-19 04:22:00,
2013-03-18 21:33:00,38.0,32.0,-100.00,WNW,290,18.0,21.0,79,-99.99,,,-99.99,,2013-03-19 04:33:00,
2013-03-18 21:42:00,38.0,32.0,-100.00,WNW,289,18.0,21.0,80,-99.99,,,-99.99,,2013-03-19 04:42:00,
2013-03-18 21:52:00,37.0,32.0,-100.00,WNW,287,17.0,19.0,80,-99.99,,,-99.99,,2013-03-19 04:52:00,
2013-03-18 22:02:00,38.0,32.0,-100.00,WNW,286,17.0,19.0,81,-99.99,,,-99.99,,2013-03-19 05:02:00,
2013-03-18 22:11:00,37.0,32.0,-100.00,WNW,290,16.0,19.0,81,-99.99,,,-99.99,,2013-03-19 05:11:00,
2013-03-18 22:22:00,36.0,31.0,-100.00,WNW,287,17.0,18.0,82,-99.99,,,-99.99,,2013-03-19 05:22:00,
2013-03-18 22:32:00,36.0,32.0,-100.00,WNW,291,16.0,17.0,83,-99.99,,,-99.99,,2013-03-19 05:32:00,
2013-03-18 22:42:00,36.0,32.0,-100.00,WNW,289,15.0,17.0,85,-99.99,,,-99.99,,2013-03-19 05:42:00,
2013-03-18 22:52:00,36.0,32.0,-100.00,WNW,294,16.0,17.0,84,-99.99,,,-99.99,,2013-03-19 05:52:00,
2013-03-18 23:02:00,36.0,31.0,-100.00,WNW,294,15.0,16.0,79,-99.99,,,-99.99,,2013-03-19 06:02:00,
2013-03-18 23:12:00,36.0,30.0,-100.00,WNW,292,16.0,18.0,79,-99.99,,,-99.99,,2013-03-19 06:12:00,
2013-03-18 23:22:00,36.0,30.0,-100.00,WNW,296,15.0,16.0,80,-99.99,,,-99.99,,2013-03-19 06:22:00,
2013-03-18 23:32:00,35.0,31.0,-100.00,WNW,297,14.0,15.0,83,-99.99,,,-99.99,,2013-03-19 06:32:00,
2013-03-18 23:42:00,35.0,31.0,-100.00,WNW,296,13.0,14.0,85,-99.99,,,-99.99,,2013-03-19 06:42:00,
2013-03-18 23:52:00,35.0,32.0,-100.00,WNW,302,14.0,15.0,88,-99.99,,,-99.99,,2013-03-19 06:52:00,